Time;durP1;ratioP1;P1;durP2;ratioP2;P2;SDS_P1;SDS_P2;PMS_P1;PMS_P2;Temp;Humidity;BMP_temperature;BMP_pressure;BME280_temperature;BME280_humidity;BME280_pressure;Samples;Min_cycle;Max_cycle;Signal;HPM_P1;HPM_P2
2022/06/01 00:03:23;;;;;;;;;;;;;;;9.27;76.02;99098.75;7901062;30;19929;-73
2022/06/01 00:07:25;;;;;;;;;;;;;;;9.25;76.35;99106.53;7901386;30;20035;-74
2022/06/01 00:11:27;;;;;;;;;;;;;;;9.25;76.15;99103.09;7894793;29;19940;-73
2022/06/01 00:15:30;;;;;;;;;;;;;;;9.27;76.55;99098.75;7874194;30;20651;-73
2022/06/01 00:19:32;;;;;;;;;;;;;;;9.20;76.30;99107.44;7880490;30;19972;-73
2022/06/01 00:23:33;;;;;;;;;;;;;;;9.19;76.57;99103.97;7886397;30;19930;-74
2022/06/01 00:27:37;;;;;;;;;;;;;;;9.22;76.85;99097.94;7884405;30;20012;-73
2022/06/01 00:31:38;;;;;;;;;;;;;;;9.22;76.48;99100.50;7879109;30;19937;-74
2022/06/01 00:35:39;;;;;;;;;;;;;;;9.22;76.44;99100.50;7859538;30;20003;-74
2022/06/01 00:39:44;;;;;;;;;;;;;;;9.27;75.80;99114.31;7873352;30;19973;-73
2022/06/01 00:43:46;;;;;;;;;;;;;;;9.31;76.34;99103.06;7877131;30;20322;-74
2022/06/01 00:47:48;;;;;;;;;;;;;;;9.30;76.31;99107.38;7875474;30;19969;-74
2022/06/01 00:51:51;;;;;;;;;;;;;;;9.32;76.93;99112.56;7879071;30;19969;-74
2022/06/01 00:56:04;;;;;;;;;;;;;;;9.29;76.93;99125.53;7886583;30;20028;-74
2022/06/01 01:00:07;;;;;;;;;;;;;;;9.32;77.95;99113.41;7878665;30;19941;-73
2022/06/01 01:04:09;;;;;;;;;;;;;;;9.33;77.83;99111.69;7874986;30;19969;-74
2022/06/01 01:08:11;;;;;;;;;;;;;;;9.33;78.42;99115.13;7870841;30;19976;-73
2022/06/01 01:12:13;;;;;;;;;;;;;;;9.39;78.47;99117.72;7879086;30;20647;-73
2022/06/01 01:16:15;;;;;;;;;;;;;;;9.37;78.12;99122.06;7876523;30;20012;-73
2022/06/01 01:20:17;;;;;;;;;;;;;;;9.37;77.42;99124.63;7873585;30;20350;-73
2022/06/01 01:24:31;;;;;;;;;;;;;;;9.37;77.52;99121.19;7879281;30;20246;-74
2022/06/01 01:28:33;;;;;;;;;;;;;;;9.37;77.99;99118.59;7876951;30;19977;-73
2022/06/01 01:32:34;;;;;;;;;;;;;;;9.38;77.67;99125.50;7881355;30;19930;-73
2022/06/01 01:36:40;;;;;;;;;;;;;;;9.30;77.50;99122.91;7892770;30;19934;-73
2022/06/01 01:40:41;;;;;;;;;;;;;;;9.26;78.28;99125.53;7875315;30;19932;-74
2022/06/01 01:44:47;;;;;;;;;;;;;;;9.21;77.97;99116.94;7876682;30;19937;-73
2022/06/01 01:48:48;;;;;;;;;;;;;;;9.19;78.29;99135.06;7883214;30;20347;-73
2022/06/01 01:52:50;;;;;;;;;;;;;;;9.19;78.72;99127.28;7874070;30;19930;-73
2022/06/01 01:57:06;;;;;;;;;;;;;;;9.21;78.88;99137.66;7876770;30;20608;-73
2022/06/01 02:01:13;;;;;;;;;;;;;;;9.18;78.44;99135.06;7889931;30;19957;-73
2022/06/01 02:14:14;;;;;;;;;;;;;;;9.19;79.09;99129.03;7876062;30;19941;-74
2022/06/01 02:18:21;;;;;;;;;;;;;;;9.18;79.63;99130.75;7882041;30;19930;-74
2022/06/01 02:22:23;;;;;;;;;;;;;;;9.19;78.94;99129.88;7880605;30;21283;-73
2022/06/01 02:26:25;;;;;;;;;;;;;;;9.21;79.52;99120.38;7877718;30;20648;-74
2022/06/01 02:30:32;;;;;;;;;;;;;;;9.25;78.81;99118.63;7877098;30;19939;-74
2022/06/01 02:34:37;;;;;;;;;;;;;;;9.14;78.33;99110.88;7876511;30;19969;-74
2022/06/01 02:38:41;;;;;;;;;;;;;;;9.06;78.59;99116.09;7879579;30;19965;-74
2022/06/01 02:42:44;;;;;;;;;;;;;;;9.01;79.13;99120.44;7881493;30;19944;-74
2022/06/01 02:46:45;;;;;;;;;;;;;;;8.95;78.88;99120.44;7881683;30;19930;-73
2022/06/01 02:50:47;;;;;;;;;;;;;;;8.86;78.91;99112.69;7879211;30;20021;-74
2022/06/01 02:54:48;;;;;;;;;;;;;;;8.79;79.36;99096.31;7875251;30;19983;-73
2022/06/01 02:58:50;;;;;;;;;;;;;;;8.68;79.19;99112.72;7877768;30;19936;-74
2022/06/01 03:02:52;;;;;;;;;;;;;;;8.62;79.27;99112.75;7878799;30;20616;-74
2022/06/01 03:06:53;;;;;;;;;;;;;;;8.55;80.01;99105.84;7875567;30;20534;-73
2022/06/01 03:11:11;;;;;;;;;;;;;;;8.51;80.29;99101.53;7876825;30;19941;-73
2022/06/01 03:15:14;;;;;;;;;;;;;;;8.44;80.14;99109.31;7870445;30;19989;-74
2022/06/01 03:19:16;;;;;;;;;;;;;;;8.37;79.93;99109.31;7874993;30;20013;-73
2022/06/01 03:23:19;;;;;;;;;;;;;;;8.29;80.06;99116.19;7875613;30;19930;-73
2022/06/01 03:27:20;;;;;;;;;;;;;;;8.25;80.32;99120.47;7880349;30;19930;-73
2022/06/01 03:31:22;;;;;;;;;;;;;;;8.23;80.59;99126.50;7873567;30;19941;-73
2022/06/01 03:35:25;;;;;;;;;;;;;;;8.16;80.73;99120.47;7871202;30;20040;-74
2022/06/01 03:39:26;;;;;;;;;;;;;;;8.05;80.97;99124.75;7879231;29;20430;-74
2022/06/01 03:43:28;;;;;;;;;;;;;;;8.02;81.47;99123.03;7874309;30;19972;-74
2022/06/01 03:47:29;;;;;;;;;;;;;;;8.03;81.79;99129.06;7874513;30;20365;-74
2022/06/01 03:51:30;;;;;;;;;;;;;;;8.03;81.78;99132.50;7874390;30;20044;-74
2022/06/01 03:55:32;;;;;;;;;;;;;;;8.03;81.58;99137.69;7876738;30;19930;-73
2022/06/01 03:59:34;;;;;;;;;;;;;;;8.04;81.66;99138.53;7876911;30;19929;-74
2022/06/01 04:03:35;;;;;;;;;;;;;;;8.02;81.63;99135.09;7887108;30;19936;-74
2022/06/01 04:07:37;;;;;;;;;;;;;;;8.01;81.68;99135.97;7879531;30;19934;-74
2022/06/01 04:11:38;;;;;;;;;;;;;;;8.06;82.08;99134.25;7879611;30;20668;-74
2022/06/01 04:15:41;;;;;;;;;;;;;;;8.10;82.26;99129.09;7877348;30;20347;-74
2022/06/01 04:19:42;;;;;;;;;;;;;;;8.10;81.93;99138.56;7878001;30;19940;-74
2022/06/01 04:23:44;;;;;;;;;;;;;;;8.14;82.55;99137.72;7879704;30;19980;-74
2022/06/01 04:27:45;;;;;;;;;;;;;;;8.18;82.67;99140.28;7874277;30;19941;-73
2022/06/01 04:31:47;;;;;;;;;;;;;;;8.28;82.47;99138.59;7874174;30;19930;-74
2022/06/01 04:35:48;;;;;;;;;;;;;;;8.32;82.54;99137.72;7879445;30;20286;-74
2022/06/01 04:39:50;;;;;;;;;;;;;;;8.39;82.59;99141.19;7882443;30;19956;-74
2022/06/01 04:43:51;;;;;;;;;;;;;;;8.58;82.24;99142.94;7871137;30;20571;-74
2022/06/01 04:47:53;;;;;;;;;;;;;;;8.69;82.06;99141.19;7866953;30;19944;-74
2022/06/01 04:51:54;;;;;;;;;;;;;;;8.84;82.05;99142.06;7864684;30;19934;-76
2022/06/01 04:55:55;;;;;;;;;;;;;;;9.02;81.38;99142.03;7866358;30;19930;-74
2022/06/01 04:59:57;;;;;;;;;;;;;;;9.26;81.14;99136.75;7863590;30;19935;-73
2022/06/01 05:03:58;;;;;;;;;;;;;;;9.45;80.58;99134.09;7866138;30;20251;-74
2022/06/01 05:07:59;;;;;;;;;;;;;;;9.71;78.79;99136.59;7861259;30;19929;-74
2022/06/01 05:12:02;;;;;;;;;;;;;;;9.91;78.61;99134.75;7869219;30;19940;-74
2022/06/01 05:16:05;;;;;;;;;;;;;;;10.20;77.52;99139.72;7861956;30;20047;-74
2022/06/01 05:20:08;;;;;;;;;;;;;;;10.46;77.24;99145.63;7864347;30;20457;-74
2022/06/01 05:24:09;;;;;;;;;;;;;;;10.75;75.83;99145.38;7866305;30;20326;-74
2022/06/01 05:28:11;;;;;;;;;;;;;;;11.15;74.62;99151.06;7865599;30;20017;-74
2022/06/01 05:32:12;;;;;;;;;;;;;;;11.62;73.02;99154.81;7850161;30;19964;-74
2022/06/01 05:36:16;;;;;;;;;;;;;;;12.09;71.40;99153.38;7875170;30;20033;-74
2022/06/01 05:40:18;;;;;;;;;;;;;;;12.62;69.10;99146.47;7864561;30;19936;-74
2022/06/01 05:44:19;;;;;;;;;;;;;;;13.22;67.43;99147.16;7863463;30;20028;-74
2022/06/01 05:48:21;;;;;;;;;;;;;;;13.75;65.12;99145.22;7875045;30;19930;-74
2022/06/01 05:52:28;;;;;;;;;;;;;;;14.28;63.82;99148.41;7901454;29;20399;-74
2022/06/01 05:56:29;;;;;;;;;;;;;;;14.73;61.44;99156.06;7873621;30;19936;-74
2022/06/01 06:00:31;;;;;;;;;;;;;;;15.27;59.74;99152.91;7876139;30;20012;-74
2022/06/01 06:04:32;;;;;;;;;;;;;;;15.70;58.49;99168.28;7911489;29;19939;-74
2022/06/01 06:08:34;;;;;;;;;;;;;;;16.10;57.33;99161.88;7914198;29;19968;-72
2022/06/01 06:12:35;;;;;;;;;;;;;;;16.74;55.76;99165.13;7901494;29;19929;-74
2022/06/01 06:16:42;;;;;;;;;;;;;;;17.06;54.32;99170.16;7897885;30;20367;-74
2022/06/01 06:20:45;;;;;;;;;;;;;;;17.47;53.46;99168.69;7893168;30;20032;-74
2022/06/01 06:24:46;;;;;;;;;;;;;;;17.95;51.44;99166.94;7915692;29;19984;-74
2022/06/01 06:28:47;;;;;;;;;;;;;;;18.38;49.75;99172.25;7883548;30;19949;-74
2022/06/01 06:32:49;;;;;;;;;;;;;;;18.79;48.36;99175.03;7880998;30;19929;-74
2022/06/01 06:36:50;;;;;;;;;;;;;;;18.97;48.24;99179.53;7898152;29;19930;-74
2022/06/01 06:40:52;;;;;;;;;;;;;;;19.27;47.74;99180.00;7874833;30;19976;-74
2022/06/01 06:44:54;;;;;;;;;;;;;;;19.55;46.02;99177.03;7874826;30;19973;-74
2022/06/01 06:48:55;;;;;;;;;;;;;;;19.50;44.63;99176.34;7899449;29;20315;-75
2022/06/01 06:52:56;;;;;;;;;;;;;;;19.48;43.83;99178.19;7915724;29;20346;-76
2022/06/01 06:56:58;;;;;;;;;;;;;;;19.52;43.32;99179.78;7900853;30;20361;-75
2022/06/01 07:00:59;;;;;;;;;;;;;;;19.65;43.46;99188.03;7899276;29;20275;-76
2022/06/01 07:05:01;;;;;;;;;;;;;;;19.87;43.35;99187.91;7900142;30;20016;-76
2022/06/01 07:09:03;;;;;;;;;;;;;;;20.06;42.50;99183.50;7889626;30;20313;-76
2022/06/01 07:13:05;;;;;;;;;;;;;;;20.19;40.95;99182.00;7856564;30;19976;-76
2022/06/01 07:17:06;;;;;;;;;;;;;;;20.36;41.67;99183.84;7897755;30;20753;-76
2022/06/01 07:21:08;;;;;;;;;;;;;;;20.57;40.32;99192.56;7890895;30;19930;-76
2022/06/01 07:25:10;;;;;;;;;;;;;;;20.58;39.83;99185.47;7883213;30;20348;-76
2022/06/01 07:29:12;;;;;;;;;;;;;;;20.75;39.70;99186.38;7875855;30;19930;-76
2022/06/01 07:33:13;;;;;;;;;;;;;;;20.73;39.25;99185.59;7876201;30;19930;-75
2022/06/01 07:46:08;;;;;;;;;;;;;;;20.77;38.62;99202.97;7873372;30;19940;-73
2022/06/01 07:50:10;;;;;;;;;;;;;;;20.85;38.78;99207.91;7876049;30;20041;-74
2022/06/01 07:54:31;;;;;;;;;;;;;;;20.99;37.62;99205.41;7867239;30;19937;-73
2022/06/01 07:58:33;;;;;;;;;;;;;;;21.13;37.00;99204.72;7869262;30;20307;-74
2022/06/01 08:02:34;;;;;;;;;;;;;;;21.27;37.04;99206.72;7874310;30;19940;-73
2022/06/01 08:06:36;;;;;;;;;;;;;;;21.40;36.23;99205.16;7883198;30;19940;-73
2022/06/01 08:10:59;;;;;;;;;;;;;;;21.43;35.67;99197.06;7900643;30;20028;-73
2022/06/01 08:15:00;;;;;;;;;;;;;;;21.49;35.91;99195.88;7899037;29;19940;-73
2022/06/01 08:19:01;;;;;;;;;;;;;;;21.64;36.31;99201.22;7907337;29;19990;-73
2022/06/01 08:23:04;;;;;;;;;;;;;;;21.85;36.50;99214.22;7896122;30;19933;-73
2022/06/01 08:27:06;;;;;;;;;;;;;;;21.75;34.60;99213.03;7891934;30;20408;-73
2022/06/01 08:31:07;;;;;;;;;;;;;;;21.88;34.93;99212.28;7894832;30;19933;-73
2022/06/01 08:35:10;;;;;;;;;;;;;;;21.96;35.54;99222.47;7900382;30;20028;-73
2022/06/01 08:39:12;;;;;;;;;;;;;;;22.01;35.74;99212.47;7899958;30;19929;-73
2022/06/01 08:43:14;;;;;;;;;;;;;;;22.06;34.91;99213.09;7891755;30;19968;-73
2022/06/01 08:47:20;;;;;;;;;;;;;;;21.79;34.96;99210.13;7901403;30;19940;-73
2022/06/01 08:51:24;;;;;;;;;;;;;;;21.73;35.59;99215.75;7907097;29;19987;-73
2022/06/01 08:55:33;;;;;;;;;;;;;;;22.03;36.46;99221.19;7919265;29;19934;-73
2022/06/01 08:59:35;;;;;;;;;;;;;;;22.27;35.88;99211.97;7918142;29;20029;-73
2022/06/01 09:03:48;;;;;;;;;;;;;;;22.40;35.71;99212.13;7899092;30;20020;-73
2022/06/01 09:07:52;;;;;;;;;;;;;;;22.38;36.60;99221.09;7902930;30;19936;-73
2022/06/01 09:11:54;;;;;;;;;;;;;;;22.57;36.01;99225.25;7905726;30;19930;-73
2022/06/01 09:16:01;;;;;;;;;;;;;;;22.56;35.07;99228.00;7876030;30;20279;-73
2022/06/01 09:24:28;;;;;;;;;;;;;;;22.65;33.77;99224.84;7890025;30;19941;-72
2022/06/01 09:28:29;;;;;;;;;;;;;;;22.53;34.25;99220.22;7904404;29;19929;-73
2022/06/01 09:32:32;;;;;;;;;;;;;;;22.49;33.43;99221.34;7897195;30;20024;-72
2022/06/01 09:36:34;;;;;;;;;;;;;;;22.64;35.18;99224.94;7896706;30;19983;-72
2022/06/01 09:40:36;;;;;;;;;;;;;;;22.64;34.11;99224.94;7884066;30;19980;-73
2022/06/01 09:44:42;;;;;;;;;;;;;;;22.73;34.95;99216.47;7881344;30;19929;-72
2022/06/01 09:48:45;;;;;;;;;;;;;;;22.72;34.93;99215.59;7878069;30;19965;-72
2022/06/01 09:52:48;;;;;;;;;;;;;;;22.85;34.32;99221.94;7877597;30;19988;-72
2022/06/01 09:56:50;;;;;;;;;;;;;;;22.91;34.55;99202.19;7880636;30;19945;-73
2022/06/01 10:09:36;;;;;;;;;;;;;;;23.33;33.62;99211.19;7873677;30;20059;-73
2022/06/01 10:13:48;;;;;;;;;;;;;;;23.06;33.28;99203.94;7875929;30;19934;-75
2022/06/01 10:17:53;;;;;;;;;;;;;;;23.16;34.03;99185.72;7870567;30;19979;-74
2022/06/01 10:22:01;;;;;;;;;;;;;;;23.43;34.64;99189.38;7855481;30;19929;-74
2022/06/01 10:26:14;;;;;;;;;;;;;;;23.66;33.44;99201.25;7873202;30;19930;-74
2022/06/01 10:30:22;;;;;;;;;;;;;;;23.73;33.11;99193.81;7872169;30;20529;-75
2022/06/01 10:34:31;;;;;;;;;;;;;;;23.59;31.54;99193.78;7877943;30;19930;-75
2022/06/01 10:38:38;;;;;;;;;;;;;;;23.67;32.07;99191.50;7881176;30;19930;-75
2022/06/01 10:47:08;;;;;;;;;;;;;;;23.84;31.88;99190.47;7876846;30;19995;-76
2022/06/01 10:51:27;;;;;;;;;;;;;;;23.67;30.94;99192.34;7867179;30;19950;-75
2022/06/01 10:55:39;;;;;;;;;;;;;;;23.50;31.39;99195.16;7870211;30;19995;-75
2022/06/01 10:59:41;;;;;;;;;;;;;;;23.49;31.00;99181.03;7872622;30;20592;-75
2022/06/01 11:04:01;;;;;;;;;;;;;;;23.68;31.56;99199.38;7879476;30;20458;-75
2022/06/01 11:08:19;;;;;;;;;;;;;;;23.79;30.82;99194.25;7874819;30;20017;-75
2022/06/01 11:12:24;;;;;;;;;;;;;;;23.55;31.17;99187.78;7868111;30;19991;-75
2022/06/01 11:16:32;;;;;;;;;;;;;;;23.60;31.07;99195.50;7867120;30;20008;-76
2022/06/01 11:20:48;;;;;;;;;;;;;;;23.75;31.04;99186.59;7882676;30;19930;-75
2022/06/01 11:25:08;;;;;;;;;;;;;;;23.94;31.28;99188.97;7874442;30;20328;-75
2022/06/01 11:29:19;;;;;;;;;;;;;;;24.13;32.01;99193.97;7876222;30;19945;-75
2022/06/01 11:33:37;;;;;;;;;;;;;;;24.03;29.54;99186.56;7888079;30;19930;-75
2022/06/01 11:37:44;;;;;;;;;;;;;;;24.10;30.07;99193.22;7893019;30;20020;-76
2022/06/01 11:41:56;;;;;;;;;;;;;;;24.10;30.46;99184.41;7889702;29;20679;-77
2022/06/01 11:46:10;;;;;;;;;;;;;;;23.77;29.95;99187.34;7882371;30;20732;-75
2022/06/01 11:50:14;;;;;;;;;;;;;;;23.44;31.84;99185.78;7890170;30;19929;-76
2022/06/01 11:54:16;;;;;;;;;;;;;;;23.51;30.87;99173.00;7890252;30;19929;-76
2022/06/01 11:58:17;;;;;;;;;;;;;;;23.83;32.20;99173.72;7905804;29;20423;-76
2022/06/01 12:02:40;;;;;;;;;;;;;;;24.22;30.61;99175.66;7891055;30;19929;-76
2022/06/01 12:07:01;;;;;;;;;;;;;;;24.16;31.08;99172.53;7889497;30;20369;-76
2022/06/01 12:11:04;;;;;;;;;;;;;;;24.28;30.67;99167.31;7907987;29;20028;-76
2022/06/01 12:15:29;;;;;;;;;;;;;;;24.33;30.50;99170.56;7892980;30;20048;-76
2022/06/01 12:19:32;;;;;;;;;;;;;;;24.45;31.21;99170.72;7895266;30;19930;-76
2022/06/01 12:32:29;;;;;;;;;;;;;;;24.20;31.59;99161.63;7897524;30;19968;-77
2022/06/01 12:36:38;;;;;;;;;;;;;;;23.88;31.30;99152.19;7897215;30;20324;-77
2022/06/01 12:40:39;;;;;;;;;;;;;;;24.01;30.05;99154.00;7895220;30;20330;-77
2022/06/01 12:44:43;;;;;;;;;;;;;;;23.96;30.16;99142.81;7895175;30;19969;-76
2022/06/01 12:48:44;;;;;;;;;;;;;;;24.15;30.45;99149.63;7875268;30;19983;-76
2022/06/01 12:52:49;;;;;;;;;;;;;;;24.35;30.72;99138.59;7892559;30;19944;-77
2022/06/01 12:56:56;;;;;;;;;;;;;;;24.60;30.54;99132.56;7887228;30;19933;-77
2022/06/01 13:00:58;;;;;;;;;;;;;;;24.83;30.57;99136.31;7897261;30;19972;-77
2022/06/01 13:05:00;;;;;;;;;;;;;;;25.05;29.80;99127.78;7885457;30;19929;-77
2022/06/01 13:09:09;;;;;;;;;;;;;;;24.91;29.33;99123.38;7873247;30;19976;-75
2022/06/01 13:13:20;;;;;;;;;;;;;;;24.51;30.43;99126.03;7869737;30;19936;-77
2022/06/01 13:17:25;;;;;;;;;;;;;;;24.73;32.27;99113.97;7863845;30;19989;-77
2022/06/01 13:21:35;;;;;;;;;;;;;;;24.82;30.69;99134.63;7875995;30;19945;-77
2022/06/01 13:25:37;;;;;;;;;;;;;;;24.90;31.48;99125.19;7880775;30;19933;-77
2022/06/01 13:29:44;;;;;;;;;;;;;;;24.88;29.07;99116.47;7910829;29;19929;-77
2022/06/01 13:33:48;;;;;;;;;;;;;;;24.83;28.63;99113.28;7893629;30;20022;-76
2022/06/01 13:37:51;;;;;;;;;;;;;;;24.88;28.81;99116.47;7891284;30;19956;-76
2022/06/01 13:41:54;;;;;;;;;;;;;;;25.02;28.80;99104.94;7897415;30;20734;-76
2022/06/01 13:45:56;;;;;;;;;;;;;;;25.23;29.56;99100.81;7873409;30;19962;-76
2022/06/01 13:50:15;;;;;;;;;;;;;;;25.41;28.59;99100.47;7874525;30;20439;-77
2022/06/01 13:54:27;;;;;;;;;;;;;;;25.24;27.03;99102.50;7869790;30;19934;-77
2022/06/01 13:58:28;;;;;;;;;;;;;;;25.15;28.65;99097.00;7870544;30;19930;-75
2022/06/01 14:02:44;;;;;;;;;;;;;;;25.15;28.83;99102.31;7880831;30;19929;-76
2022/06/01 14:06:50;;;;;;;;;;;;;;;25.18;29.25;99097.63;7902689;29;19992;-76
2022/06/01 14:10:53;;;;;;;;;;;;;;;25.33;28.33;99098.38;7873686;30;19980;-77
2022/06/01 14:15:02;;;;;;;;;;;;;;;25.24;26.89;99106.97;7874664;30;19930;-77
2022/06/01 14:19:05;;;;;;;;;;;;;;;25.08;27.98;99099.19;7879758;30;20040;-76
2022/06/01 14:23:06;;;;;;;;;;;;;;;25.33;28.15;99102.84;7877721;30;20385;-75
2022/06/01 14:31:30;;;;;;;;;;;;;;;25.40;27.17;99109.41;7889874;30;19976;-76
2022/06/01 14:35:32;;;;;;;;;;;;;;;25.34;27.76;99099.22;7893686;30;20633;-76
2022/06/01 14:39:36;;;;;;;;;;;;;;;25.52;29.33;99104.09;7891103;30;19934;-76
2022/06/01 14:43:39;;;;;;;;;;;;;;;25.40;26.58;99091.66;7896168;30;19930;-76
2022/06/01 14:47:41;;;;;;;;;;;;;;;25.41;26.63;99104.00;7867158;29;19983;-76
2022/06/01 14:51:47;;;;;;;;;;;;;;;25.54;26.85;99098.66;7863120;30;19930;-76
2022/06/01 14:55:49;;;;;;;;;;;;;;;25.44;26.76;99105.59;7876830;30;20587;-76
2022/06/01 14:59:50;;;;;;;;;;;;;;;25.41;26.09;99101.34;7877974;30;20326;-76
2022/06/01 15:03:51;;;;;;;;;;;;;;;25.35;26.98;99108.91;7888991;30;19933;-76
2022/06/01 15:07:53;;;;;;;;;;;;;;;25.27;26.38;99107.59;7890127;29;20395;-76
2022/06/01 15:11:55;;;;;;;;;;;;;;;25.29;26.91;99100.38;7871556;30;20050;-76
2022/06/01 15:15:57;;;;;;;;;;;;;;;25.22;27.56;99112.41;7866586;30;19936;-76
2022/06/01 15:19:58;;;;;;;;;;;;;;;25.34;26.12;99109.84;7874906;30;19940;-76
2022/06/01 15:24:00;;;;;;;;;;;;;;;25.56;27.39;99102.91;7885746;30;20563;-76
2022/06/01 15:28:02;;;;;;;;;;;;;;;25.71;27.31;99106.34;7890809;29;19936;-76
2022/06/01 15:40:44;;;;;;;;;;;;;;;25.78;26.79;99107.59;7871292;30;19965;-76
2022/06/01 15:44:46;;;;;;;;;;;;;;;25.55;25.64;99106.53;7874309;30;20329;-76
2022/06/01 15:48:48;;;;;;;;;;;;;;;25.51;27.17;99114.84;7886768;30;19944;-76
2022/06/01 15:52:49;;;;;;;;;;;;;;;25.68;27.42;99108.38;7881449;30;19930;-76
2022/06/01 15:56:51;;;;;;;;;;;;;;;25.66;26.67;99118.22;7880430;30;19949;-76
2022/06/01 16:00:53;;;;;;;;;;;;;;;25.67;27.60;99111.94;7879925;30;19973;-76
2022/06/01 16:04:54;;;;;;;;;;;;;;;25.72;25.82;99117.81;7873295;30;20053;-76
2022/06/01 16:08:56;;;;;;;;;;;;;;;25.62;26.17;99122.91;7873115;30;19929;-76
2022/06/01 16:12:57;;;;;;;;;;;;;;;25.50;26.50;99127.28;7892967;30;19933;-77
2022/06/01 16:16:59;;;;;;;;;;;;;;;25.42;26.64;99129.63;7883845;30;20332;-76
2022/06/01 16:21:03;;;;;;;;;;;;;;;25.36;26.81;99123.88;7875262;30;19934;-76
2022/06/01 16:25:05;;;;;;;;;;;;;;;25.20;25.66;99130.25;7909456;29;20019;-76
2022/06/01 16:29:07;;;;;;;;;;;;;;;25.07;27.26;99131.19;7892053;30;19979;-76
2022/06/01 16:33:21;;;;;;;;;;;;;;;24.82;27.74;99132.81;7890676;30;19999;-75
2022/06/01 16:37:22;;;;;;;;;;;;;;;24.18;27.55;99129.03;7891662;29;20227;-76
2022/06/01 16:41:24;;;;;;;;;;;;;;;23.76;29.13;99140.56;7898232;29;19972;-75
2022/06/01 16:45:27;;;;;;;;;;;;;;;23.38;29.04;99143.75;7879786;30;19929;-75
2022/06/01 16:49:29;;;;;;;;;;;;;;;23.00;29.19;99140.75;7892472;30;20024;-75
2022/06/01 16:53:31;;;;;;;;;;;;;;;22.62;29.65;99148.22;7892544;29;20292;-75
2022/06/01 16:57:36;;;;;;;;;;;;;;;22.33;30.79;99149.06;7876107;30;19940;-75
2022/06/01 17:01:37;;;;;;;;;;;;;;;21.98;30.96;99157.13;7882552;30;19930;-75
2022/06/01 17:05:42;;;;;;;;;;;;;;;21.72;31.14;99155.88;7869844;30;19941;-75
2022/06/01 17:09:44;;;;;;;;;;;;;;;21.56;32.25;99155.00;7885464;30;20398;-75
2022/06/01 17:13:46;;;;;;;;;;;;;;;21.36;32.13;99161.31;7895062;30;19969;-75
2022/06/01 17:17:53;;;;;;;;;;;;;;;21.22;32.53;99163.81;7877567;30;19973;-75
2022/06/01 17:21:55;;;;;;;;;;;;;;;21.00;32.48;99166.66;7861095;30;19956;-76
2022/06/01 17:25:57;;;;;;;;;;;;;;;20.80;33.55;99162.38;7872601;30;19930;-76
2022/06/01 17:29:58;;;;;;;;;;;;;;;20.60;33.67;99167.78;7864181;30;19976;-75
2022/06/01 17:34:00;;;;;;;;;;;;;;;20.46;35.92;99166.69;7872259;30;20020;-76
2022/06/01 17:38:03;;;;;;;;;;;;;;;20.32;34.26;99173.53;7876286;30;19975;-75
2022/06/01 17:42:05;;;;;;;;;;;;;;;20.18;36.14;99175.03;7874223;30;19930;-75
2022/06/01 17:46:07;;;;;;;;;;;;;;;19.97;38.05;99177.81;7871222;30;19957;-75
2022/06/01 17:50:10;;;;;;;;;;;;;;;19.81;37.35;99182.94;7877793;30;20708;-76
2022/06/01 17:54:12;;;;;;;;;;;;;;;19.67;36.38;99180.91;7880313;30;20351;-76
2022/06/01 17:58:15;;;;;;;;;;;;;;;19.57;37.33;99190.16;7871957;30;19962;-76
2022/06/01 18:02:16;;;;;;;;;;;;;;;19.44;38.18;99179.28;7894096;29;20028;-76
2022/06/01 18:06:18;;;;;;;;;;;;;;;19.31;37.18;99186.84;7879373;30;19968;-75
2022/06/01 18:10:20;;;;;;;;;;;;;;;19.22;39.62;99184.63;7878445;30;20295;-75
2022/06/01 18:14:21;;;;;;;;;;;;;;;19.11;38.73;99193.88;7880430;30;19933;-75
2022/06/01 18:18:23;;;;;;;;;;;;;;;18.96;39.60;99192.75;7874662;30;19945;-76
2022/06/01 18:22:25;;;;;;;;;;;;;;;18.86;39.33;99201.94;7871083;30;20010;-75
2022/06/01 18:26:28;;;;;;;;;;;;;;;18.70;39.40;99201.72;7882337;30;19972;-75
2022/06/01 18:30:30;;;;;;;;;;;;;;;18.56;41.80;99204.00;7872309;30;19941;-75
2022/06/01 18:34:31;;;;;;;;;;;;;;;18.46;40.44;99210.53;7881825;30;20648;-75
2022/06/01 18:38:33;;;;;;;;;;;;;;;18.31;43.08;99207.63;7869724;30;19973;-76
2022/06/01 18:42:36;;;;;;;;;;;;;;;18.14;42.68;99220.53;7882305;30;19930;-75
2022/06/01 18:46:38;;;;;;;;;;;;;;;17.92;43.35;99222.22;7872512;30;19972;-75
2022/06/01 18:50:47;;;;;;;;;;;;;;;17.80;43.33;99224.41;7868383;30;19936;-75
2022/06/01 18:54:49;;;;;;;;;;;;;;;17.68;44.05;99229.25;7889231;29;19932;-76
2022/06/01 18:58:51;;;;;;;;;;;;;;;17.51;45.07;99242.94;7891009;29;19949;-75
2022/06/01 19:02:53;;;;;;;;;;;;;;;17.25;47.49;99245.63;7875291;30;20447;-76
2022/06/01 19:06:56;;;;;;;;;;;;;;;16.96;49.27;99243.94;7887668;29;19941;-75
2022/06/01 19:11:00;;;;;;;;;;;;;;;16.71;48.98;99251.75;7869179;30;20358;-75
2022/06/01 19:15:02;;;;;;;;;;;;;;;16.48;50.43;99250.66;7876065;30;19965;-76
2022/06/01 19:19:12;;;;;;;;;;;;;;;16.27;50.70;99256.53;7877225;30;20025;-75
2022/06/01 19:23:14;;;;;;;;;;;;;;;16.00;50.12;99259.06;7875286;29;19946;-77
2022/06/01 19:27:21;;;;;;;;;;;;;;;15.82;52.59;99263.97;7880543;30;19930;-77
2022/06/01 19:31:40;;;;;;;;;;;;;;;15.60;52.87;99263.66;7875534;30;19987;-73
2022/06/01 19:44:04;;;;;;;;;;;;;;;15.44;53.14;99265.81;7891959;29;19929;-73
2022/06/01 19:44:39;;;;;;;;;;;;;;;15.02;54.42;99283.44;7890130;30;19962;-73
2022/06/01 19:48:40;;;;;;;;;;;;;;;14.86;55.02;99287.31;7892372;30;19929;-75
2022/06/01 19:52:41;;;;;;;;;;;;;;;14.68;55.52;99296.44;7904474;29;19960;-73
2022/06/01 19:56:45;;;;;;;;;;;;;;;14.54;55.99;99309.78;7890211;30;20037;-73
2022/06/01 20:00:47;;;;;;;;;;;;;;;14.40;56.65;99317.06;7882841;30;19960;-73
2022/06/01 20:04:49;;;;;;;;;;;;;;;14.28;56.90;99314.69;7863238;30;20021;-72
2022/06/01 20:08:51;;;;;;;;;;;;;;;14.13;58.32;99321.94;7858627;30;19936;-72
2022/06/01 20:17:14;;;;;;;;;;;;;;;13.89;58.43;99333.72;7861727;30;19929;-72
2022/06/01 20:21:16;;;;;;;;;;;;;;;13.79;58.18;99337.38;7859422;30;20372;-72
2022/06/01 20:25:18;;;;;;;;;;;;;;;13.64;58.67;99348.09;7859105;30;20391;-72
2022/06/01 20:29:19;;;;;;;;;;;;;;;13.54;59.52;99351.75;7859729;30;19940;-72
2022/06/01 20:33:20;;;;;;;;;;;;;;;13.45;59.00;99367.56;7862865;30;20437;-72
2022/06/01 20:37:22;;;;;;;;;;;;;;;13.33;59.64;99368.63;7868221;30;20536;-72
2022/06/01 20:41:25;;;;;;;;;;;;;;;13.27;61.38;99376.53;7867656;30;19977;-73
2022/06/01 20:45:27;;;;;;;;;;;;;;;13.17;61.00;99378.41;7885979;30;19934;-72
2022/06/01 20:49:29;;;;;;;;;;;;;;;13.09;61.72;99387.19;7867481;30;19981;-72
2022/06/01 20:53:30;;;;;;;;;;;;;;;13.00;61.86;99386.47;7866929;30;20243;-72
2022/06/01 20:57:32;;;;;;;;;;;;;;;12.92;61.81;99392.66;7876004;30;20072;-72
2022/06/01 21:01:34;;;;;;;;;;;;;;;12.84;62.42;99394.50;7869253;30;19926;-72
2022/06/01 21:05:35;;;;;;;;;;;;;;;12.76;62.44;99396.38;7865520;30;20040;-72
2022/06/01 21:09:37;;;;;;;;;;;;;;;12.59;63.12;99396.59;7890206;30;19984;-72
2022/06/01 21:13:39;;;;;;;;;;;;;;;12.47;63.46;99395.00;7897040;30;20490;-72
2022/06/01 21:17:40;;;;;;;;;;;;;;;12.40;64.08;99395.94;7898101;30;19968;-72
2022/06/01 21:21:41;;;;;;;;;;;;;;;12.35;63.81;99395.97;7898955;30;19976;-72
2022/06/01 21:25:43;;;;;;;;;;;;;;;12.30;64.57;99408.19;7898616;30;20344;-72
2022/06/01 21:29:44;;;;;;;;;;;;;;;12.24;65.19;99415.22;7890791;30;19956;-72
2022/06/01 21:33:46;;;;;;;;;;;;;;;12.23;64.97;99410.91;7880484;30;19937;-72
2022/06/01 21:37:47;;;;;;;;;;;;;;;12.18;65.25;99418.72;7876645;30;19983;-72
2022/06/01 21:41:49;;;;;;;;;;;;;;;12.12;66.11;99420.56;7878427;30;19941;-72
2022/06/01 21:45:50;;;;;;;;;;;;;;;12.07;65.77;99425.81;7876607;30;20826;-72
2022/06/01 21:49:53;;;;;;;;;;;;;;;12.03;65.69;99421.53;7877051;30;20259;-72
2022/06/01 21:53:54;;;;;;;;;;;;;;;11.97;65.95;99429.38;7878454;30;19929;-72
2022/06/01 21:57:56;;;;;;;;;;;;;;;11.91;66.77;99430.28;7870692;30;19977;-72
2022/06/01 22:01:57;;;;;;;;;;;;;;;11.98;65.98;99433.69;7876298;30;20496;-72
2022/06/01 22:05:59;;;;;;;;;;;;;;;11.97;66.15;99434.56;7879218;30;19941;-72
2022/06/01 22:10:00;;;;;;;;;;;;;;;12.02;65.58;99440.59;7886669;30;19930;-73
2022/06/01 22:14:02;;;;;;;;;;;;;;;12.09;63.31;99440.53;7883291;30;19930;-73
2022/06/01 22:18:03;;;;;;;;;;;;;;;12.09;64.59;99450.94;7879720;30;19945;-73
2022/06/01 22:22:05;;;;;;;;;;;;;;;11.98;65.74;99452.75;7871471;30;20052;-73